Terminal Aerodrome Forecast
Issued by NWS

Home | Current Version | Previous Version | Text Only | Print | Product List | Glossary On
Versions: 1 2 3 4 5 6 7 8 9 10 11 12 13 14 15 16 17 18 19 20 21 22 23 24 25 26 27 28 29 30 31 32 33
947
FTUS46 KPQR 311139
TAFONP
TAF
KONP 311139Z 3112/0112 08004KT P6SM SCT250
     FM311700 33008KT P6SM SCT250
     FM312200 34014G22KT P6SM SCT250
     FM010400 34007KT P6SM SCT250
     FM011000 33004KT P6SM SCT010=

USA.gov is the U.S. government's official web portal to all federal, state and local government web resources and services.